createdAt,value
2023-04-29T00:01:45.714Z,12.75
2023-04-29T00:04:14.070Z,11.13
2023-04-29T00:06:42.380Z,15.65
2023-04-29T00:09:10.324Z,11.65
2023-04-29T00:11:38.231Z,13.02
2023-04-29T00:14:08.265Z,12.82
2023-04-29T00:16:39.401Z,15.18
2023-04-29T00:19:07.381Z,13.18
2023-04-29T00:21:35.351Z,13.38
2023-04-29T00:24:03.417Z,13.52
2023-04-29T00:26:31.105Z,13.35
2023-04-29T00:28:59.690Z,15.05
2023-04-29T00:31:27.905Z,14.07
2023-04-29T00:33:56.539Z,17.20
2023-04-29T00:36:26.420Z,15.48
2023-04-29T00:38:54.267Z,13.43
2023-04-29T00:41:22.458Z,13.68
2023-04-29T00:43:50.449Z,12.40
2023-04-29T00:46:18.450Z,14.10
2023-04-29T00:48:46.519Z,16.05
2023-04-29T00:51:15.228Z,15.38
2023-04-29T00:53:44.458Z,14.18
2023-04-29T00:56:15.181Z,13.45
2023-04-29T00:58:50.155Z,15.65
2023-04-29T01:01:19.574Z,20.30
2023-04-29T01:03:47.725Z,12.70
2023-04-29T01:06:37.869Z,17.48
2023-04-29T01:09:46.551Z,14.85
2023-04-29T01:12:25.477Z,14.55
2023-04-29T01:15:22.767Z,13.52
2023-04-29T01:18:05.445Z,14.13
2023-04-29T01:20:35.202Z,13.82
2023-04-29T01:23:02.686Z,16.38
2023-04-29T01:25:30.349Z,14.25
2023-04-29T01:28:36.661Z,14.05
2023-04-29T01:31:13.435Z,16.45
2023-04-29T01:34:05.809Z,18.88
2023-04-29T01:36:54.822Z,15.57
2023-04-29T01:40:06.021Z,16.95
2023-04-29T01:45:22.898Z,14.45
2023-04-29T01:47:56.226Z,12.63
2023-04-29T01:50:24.258Z,13.48
2023-04-29T01:52:52.227Z,14.88
2023-04-29T01:55:20.788Z,14.60
2023-04-29T01:57:55.748Z,15.15
2023-04-29T02:01:02.289Z,15.85
2023-04-29T02:03:33.081Z,17.65
2023-04-29T02:06:03.081Z,16.73
2023-04-29T02:08:30.753Z,15.65
2023-04-29T02:11:00.654Z,14.30
2023-04-29T02:13:37.565Z,16.35
2023-04-29T02:16:12.836Z,15.15
2023-04-29T02:18:45.353Z,16.67
2023-04-29T02:21:12.811Z,15.68
2023-04-29T02:23:40.917Z,20.83
2023-04-29T02:26:09.624Z,16.08
2023-04-29T02:28:37.423Z,16.02
2023-04-29T02:31:05.590Z,14.77
2023-04-29T02:33:33.894Z,16.75
2023-04-29T02:36:02.031Z,17.00
2023-04-29T02:38:29.615Z,16.25
2023-04-29T02:40:57.383Z,17.50
2023-04-29T02:43:24.954Z,16.05
2023-04-29T02:45:52.625Z,16.10
2023-04-29T02:48:20.748Z,16.98
2023-04-29T02:50:49.390Z,16.45
2023-04-29T02:53:16.893Z,16.80
2023-04-29T02:55:44.397Z,16.55
2023-04-29T02:58:11.862Z,16.02
2023-04-29T03:00:42.249Z,16.48
2023-04-29T03:03:10.449Z,17.17
2023-04-29T03:05:38.261Z,13.27
2023-04-29T03:08:05.983Z,14.48
2023-04-29T03:10:34.001Z,14.05
2023-04-29T03:13:03.097Z,15.50
2023-04-29T03:15:32.070Z,16.05
2023-04-29T03:18:02.085Z,16.08
2023-04-29T03:20:29.783Z,15.05
2023-04-29T03:22:57.350Z,16.00
2023-04-29T03:25:26.235Z,15.48
2023-04-29T03:27:53.985Z,17.02
2023-04-29T03:30:21.744Z,16.77
2023-04-29T03:32:52.525Z,16.75
2023-04-29T03:35:20.281Z,15.50
2023-04-29T03:38:06.464Z,16.75
2023-04-29T03:40:35.871Z,17.65
2023-04-29T03:43:03.754Z,18.58
2023-04-29T03:45:31.773Z,16.15
2023-04-29T03:47:59.659Z,16.23
2023-04-29T03:50:27.262Z,17.48
2023-04-29T03:52:55.014Z,15.88
2023-04-29T03:55:22.675Z,14.15
2023-04-29T03:57:50.813Z,16.00
2023-04-29T04:00:19.694Z,15.15
2023-04-29T04:02:53.653Z,13.80
2023-04-29T04:05:25.293Z,13.68
2023-04-29T04:08:01.090Z,14.40
2023-04-29T04:10:48.168Z,16.13
2023-04-29T04:13:30.427Z,14.05
2023-04-29T04:15:58.737Z,14.23
2023-04-29T04:18:26.622Z,15.23
2023-04-29T04:20:54.154Z,18.23
2023-04-29T04:23:21.882Z,14.98
2023-04-29T04:25:50.073Z,16.05
2023-04-29T04:28:40.985Z,14.82
2023-04-29T04:31:22.541Z,13.82
2023-04-29T04:33:51.151Z,17.90
2023-04-29T04:36:18.929Z,14.70
2023-04-29T04:38:46.681Z,16.50
2023-04-29T04:41:14.252Z,14.63
2023-04-29T04:43:44.377Z,15.77
2023-04-29T04:46:24.447Z,14.00
2023-04-29T04:49:15.776Z,15.93
2023-04-29T04:51:49.858Z,15.55
2023-04-29T04:54:17.376Z,14.10
2023-04-29T04:56:45.057Z,12.15
2023-04-29T04:59:12.645Z,16.60
2023-04-29T05:01:41.586Z,16.25
2023-04-29T05:04:09.696Z,15.75
2023-04-29T05:06:37.867Z,16.20
2023-04-29T05:09:05.621Z,15.35
2023-04-29T05:11:33.624Z,15.38
2023-04-29T05:14:08.251Z,17.23
2023-04-29T05:16:36.075Z,19.42
2023-04-29T05:19:04.183Z,15.10
2023-04-29T05:21:36.001Z,17.25
2023-04-29T05:24:03.892Z,18.30
2023-04-29T05:26:31.601Z,18.92
2023-04-29T05:29:01.642Z,18.90
2023-04-29T05:31:34.218Z,14.82
2023-04-29T05:34:04.565Z,14.60
2023-04-29T05:36:32.495Z,18.50
2023-04-29T05:39:00.473Z,16.13
2023-04-29T05:41:28.237Z,15.63
2023-04-29T05:44:19.365Z,17.38
2023-04-29T05:46:48.956Z,17.70
2023-04-29T05:49:17.431Z,18.40
2023-04-29T05:51:45.054Z,17.65
2023-04-29T05:54:12.616Z,20.77
2023-04-29T05:56:40.710Z,20.48
2023-04-29T05:59:08.660Z,22.10
2023-04-29T06:01:36.830Z,26.33
2023-04-29T06:04:05.213Z,23.35
2023-04-29T06:06:39.618Z,26.00
2023-04-29T06:09:26.568Z,21.55
2023-04-29T06:11:58.075Z,26.55
2023-04-29T06:14:25.815Z,23.90
2023-04-29T06:16:54.026Z,26.27
2023-04-29T06:19:22.111Z,29.70
2023-04-29T06:21:50.636Z,22.33
2023-04-29T06:24:18.378Z,27.80
2023-04-29T06:26:46.985Z,26.05
2023-04-29T06:29:14.754Z,24.02
2023-04-29T06:31:42.379Z,27.58
2023-04-29T06:34:10.144Z,28.67
2023-04-29T06:36:47.723Z,24.88
2023-04-29T06:39:38.012Z,28.33
2023-04-29T06:42:39.506Z,22.75
2023-04-29T06:45:25.968Z,25.15
2023-04-29T06:48:00.795Z,20.27
2023-04-29T06:50:38.844Z,20.25
2023-04-29T06:53:08.091Z,17.38
2023-04-29T06:55:36.116Z,20.60
2023-04-29T06:58:04.978Z,19.20
2023-04-29T07:00:40.164Z,18.55
2023-04-29T07:03:07.896Z,20.05
2023-04-29T07:05:37.000Z,19.90
2023-04-29T07:08:04.564Z,19.65
2023-04-29T07:10:32.794Z,16.85
2023-04-29T07:13:01.112Z,18.67
2023-04-29T07:15:33.573Z,16.35
2023-04-29T07:18:01.240Z,15.45
2023-04-29T07:20:29.378Z,17.42
2023-04-29T07:22:57.143Z,15.20
2023-04-29T07:25:26.830Z,10.00
2023-04-29T07:27:55.293Z,11.18
2023-04-29T07:30:28.865Z,13.95
2023-04-29T07:32:57.594Z,13.65
2023-04-29T07:35:25.635Z,9.93
2023-04-29T07:37:53.249Z,11.23
2023-04-29T07:40:22.548Z,7.88
2023-04-29T07:42:57.325Z,10.80
2023-04-29T07:45:25.275Z,12.75
2023-04-29T07:47:53.454Z,17.30
2023-04-29T07:50:21.607Z,9.93
2023-04-29T07:52:49.564Z,14.82
2023-04-29T07:55:21.577Z,17.92
2023-04-29T07:57:50.266Z,18.05
2023-04-29T08:00:18.323Z,16.90
2023-04-29T08:02:54.304Z,16.33
2023-04-29T08:05:23.482Z,12.02
2023-04-29T08:07:52.167Z,12.77
2023-04-29T08:10:22.813Z,9.65
2023-04-29T08:12:50.711Z,13.32
2023-04-29T08:15:18.724Z,6.75
2023-04-29T08:17:46.540Z,12.80
2023-04-29T08:20:15.352Z,7.72
2023-04-29T08:22:42.852Z,10.27
2023-04-29T08:25:10.925Z,12.27
2023-04-29T08:27:38.428Z,9.70
2023-04-29T08:30:06.767Z,10.10
2023-04-29T08:32:35.482Z,12.15
2023-04-29T08:35:03.671Z,9.05
2023-04-29T08:37:31.252Z,10.45
2023-04-29T08:39:58.909Z,10.77
2023-04-29T08:42:34.937Z,6.70
2023-04-29T08:45:03.483Z,8.98
2023-04-29T08:47:33.525Z,9.40
2023-04-29T08:50:05.933Z,6.55
2023-04-29T08:52:34.143Z,9.95
2023-04-29T08:55:06.832Z,7.00
2023-04-29T08:57:42.644Z,10.68
2023-04-29T09:00:11.013Z,9.55
2023-04-29T09:02:46.403Z,7.63
2023-04-29T09:05:14.054Z,7.35
2023-04-29T09:07:42.577Z,8.50
2023-04-29T09:10:10.392Z,9.00
2023-04-29T09:12:37.840Z,6.07
2023-04-29T09:15:05.738Z,6.53
2023-04-29T09:17:42.368Z,7.10
2023-04-29T09:20:30.414Z,6.82
2023-04-29T09:23:02.050Z,6.25
2023-04-29T09:25:30.092Z,7.38
2023-04-29T09:27:58.055Z,4.78
2023-04-29T09:30:27.006Z,4.22
2023-04-29T09:33:10.467Z,3.22
2023-04-29T09:35:41.219Z,4.20
2023-04-29T09:38:14.161Z,6.05
2023-04-29T09:40:58.391Z,7.28
2023-04-29T09:43:27.069Z,5.90
2023-04-29T09:45:54.830Z,5.40
2023-04-29T09:48:22.372Z,4.25
2023-04-29T09:51:03.946Z,3.00
2023-04-29T09:53:31.860Z,4.13
2023-04-29T09:56:01.926Z,4.43
2023-04-29T09:58:37.621Z,4.10
2023-04-29T10:01:06.328Z,7.30
2023-04-29T10:03:46.256Z,10.70
2023-04-29T10:06:20.638Z,6.38
2023-04-29T10:09:03.487Z,6.85
2023-04-29T10:11:31.578Z,4.40
2023-04-29T10:14:00.597Z,5.38
2023-04-29T10:16:29.888Z,5.53
2023-04-29T10:19:01.182Z,6.40
2023-04-29T10:21:33.124Z,4.78
2023-04-29T10:24:02.569Z,8.80
2023-04-29T10:26:32.197Z,6.22
2023-04-29T10:29:01.167Z,16.27
2023-04-29T10:31:28.771Z,8.43
2023-04-29T10:34:01.814Z,6.00
2023-04-29T10:36:32.987Z,9.20
2023-04-29T10:39:05.202Z,6.82
2023-04-29T10:41:38.063Z,6.05
2023-04-29T10:44:05.688Z,5.20
2023-04-29T10:46:33.189Z,6.35
2023-04-29T10:49:06.667Z,4.65
2023-04-29T10:51:35.972Z,5.47
2023-04-29T10:54:04.509Z,8.48
2023-04-29T10:56:40.256Z,4.57
2023-04-29T10:59:12.633Z,6.78
2023-04-29T11:01:48.226Z,12.85
2023-04-29T11:04:16.971Z,4.75
2023-04-29T11:06:54.112Z,7.60
2023-04-29T11:09:27.035Z,5.70
2023-04-29T11:12:05.615Z,4.25
2023-04-29T11:14:39.395Z,4.07
2023-04-29T11:17:13.012Z,6.57
2023-04-29T11:19:45.144Z,3.63
2023-04-29T11:22:25.963Z,3.28
2023-04-29T11:25:09.794Z,2.95
2023-04-29T11:27:42.778Z,2.60
2023-04-29T11:30:10.387Z,5.05
2023-04-29T11:32:43.176Z,4.00
2023-04-29T11:35:13.252Z,5.10
2023-04-29T11:37:42.003Z,3.45
2023-04-29T11:40:10.451Z,8.20
2023-04-29T11:42:49.322Z,4.53
2023-04-29T11:45:20.771Z,3.50
2023-04-29T11:47:49.330Z,7.25
2023-04-29T11:50:20.353Z,5.97
2023-04-29T11:52:51.047Z,4.40
2023-04-29T11:55:19.849Z,5.35
2023-04-29T11:57:49.783Z,5.18
2023-04-29T12:00:17.359Z,4.68
2023-04-29T12:02:47.446Z,2.53
2023-04-29T12:05:18.181Z,4.45
2023-04-29T12:07:48.705Z,3.92
2023-04-29T12:10:15.933Z,8.07
2023-04-29T12:12:45.473Z,3.40
2023-04-29T12:15:13.604Z,3.33
2023-04-29T12:17:42.653Z,4.55
2023-04-29T12:20:11.800Z,4.57
2023-04-29T12:22:39.337Z,3.92
2023-04-29T12:25:08.146Z,3.05
2023-04-29T12:27:37.165Z,2.15
2023-04-29T12:30:12.190Z,3.85
2023-04-29T12:32:39.588Z,5.00
2023-04-29T12:35:16.459Z,1.52
2023-04-29T12:37:43.864Z,5.60
2023-04-29T12:40:16.820Z,7.82
2023-04-29T12:42:47.303Z,4.22
2023-04-29T12:45:27.965Z,4.85
2023-04-29T12:47:57.695Z,2.92
2023-04-29T12:50:43.044Z,3.38
2023-04-29T12:53:10.578Z,3.00
2023-04-29T12:55:38.811Z,1.50
2023-04-29T12:58:07.663Z,3.80
2023-04-29T13:00:36.101Z,1.48
2023-04-29T13:03:04.687Z,5.35
2023-04-29T13:05:32.306Z,2.75
2023-04-29T13:07:59.892Z,8.15
2023-04-29T13:10:28.540Z,2.78
2023-04-29T13:12:57.148Z,3.22
2023-04-29T13:15:26.235Z,3.42
2023-04-29T13:17:54.060Z,3.03
2023-04-29T13:20:22.153Z,1.65
2023-04-29T13:22:49.634Z,2.28
2023-04-29T13:25:17.410Z,4.35
2023-04-29T13:27:45.090Z,5.28
2023-04-29T13:30:12.865Z,2.47
2023-04-29T13:32:46.431Z,7.05
2023-04-29T13:35:21.392Z,3.53
2023-04-29T13:37:49.458Z,4.82
2023-04-29T13:40:20.380Z,4.22
2023-04-29T13:42:50.482Z,6.90
2023-04-29T13:45:20.614Z,4.90
2023-04-29T13:48:05.867Z,1.27
2023-04-29T13:51:16.980Z,4.63
2023-04-29T13:54:04.903Z,4.13
2023-04-29T13:56:47.602Z,3.92
2023-04-29T14:04:01.340Z,4.35
2023-04-29T14:06:29.629Z,3.78
2023-04-29T14:08:57.163Z,5.55
2023-04-29T14:11:24.825Z,4.05
2023-04-29T14:13:52.334Z,3.60
2023-04-29T14:16:20.917Z,8.50
2023-04-29T14:18:48.464Z,8.70
2023-04-29T14:21:16.430Z,6.90
2023-04-29T14:23:44.087Z,4.57
2023-04-29T14:26:27.011Z,5.32
2023-04-29T14:29:00.041Z,3.60
2023-04-29T14:31:35.695Z,4.30
2023-04-29T14:34:03.420Z,3.50
2023-04-29T14:36:32.857Z,4.30
2023-04-29T14:39:01.404Z,6.45
2023-04-29T14:41:28.859Z,7.25
2023-04-29T14:43:56.278Z,4.85
2023-04-29T14:46:23.785Z,2.55
2023-04-29T14:48:51.199Z,4.65
2023-04-29T14:51:18.532Z,2.53
2023-04-29T14:53:45.971Z,3.22
2023-04-29T14:56:13.450Z,5.65
2023-04-29T14:58:41.468Z,3.25
2023-04-29T15:01:09.100Z,5.15
2023-04-29T15:03:43.531Z,4.45
2023-04-29T15:06:12.710Z,4.90
2023-04-29T15:08:40.086Z,2.00
2023-04-29T15:11:07.322Z,2.58
2023-04-29T15:13:34.583Z,4.63
2023-04-29T15:16:02.278Z,3.80
2023-04-29T15:18:30.265Z,2.03
2023-04-29T15:20:57.727Z,4.15
2023-04-29T15:23:25.938Z,5.55
2023-04-29T15:25:53.350Z,3.10
2023-04-29T15:28:20.676Z,3.90
2023-04-29T15:30:47.979Z,3.50
2023-04-29T15:33:15.368Z,5.68
2023-04-29T15:35:42.732Z,4.55
2023-04-29T15:38:10.021Z,3.15
2023-04-29T15:40:37.339Z,3.80
2023-04-29T15:43:04.903Z,5.22
2023-04-29T15:45:33.092Z,3.20
2023-04-29T15:48:00.896Z,2.47
2023-04-29T15:50:28.624Z,4.47
2023-04-29T15:52:58.854Z,20.33
2023-04-29T15:55:44.953Z,9.18
2023-04-29T15:58:14.920Z,7.05
2023-04-29T16:00:42.350Z,9.65
2023-04-29T16:03:09.686Z,12.73
2023-04-29T16:05:38.133Z,12.60
2023-04-29T16:08:06.036Z,11.20
2023-04-29T16:10:33.521Z,8.23
2023-04-29T16:13:01.159Z,16.30
2023-04-29T16:15:29.472Z,8.63
2023-04-29T16:17:56.983Z,7.32
2023-04-29T16:20:25.645Z,5.72
2023-04-29T16:22:53.394Z,2.63
2023-04-29T16:25:20.715Z,4.35
2023-04-29T16:27:47.973Z,6.35
2023-04-29T16:30:15.244Z,11.77
2023-04-29T16:32:43.176Z,6.13
2023-04-29T16:35:11.375Z,4.00
2023-04-29T16:37:39.006Z,5.65
2023-04-29T16:40:07.061Z,5.53
2023-04-29T16:42:34.258Z,6.90
2023-04-29T16:45:01.467Z,7.93
2023-04-29T16:47:28.874Z,16.30
2023-04-29T16:49:56.340Z,17.55
2023-04-29T16:52:24.234Z,14.07
2023-04-29T16:54:51.476Z,10.20
2023-04-29T16:57:19.351Z,5.68
2023-04-29T16:59:46.726Z,6.55
2023-04-29T17:02:14.323Z,15.10
2023-04-29T17:04:41.894Z,12.23
2023-04-29T17:07:09.548Z,13.20
2023-04-29T17:09:36.843Z,28.90
2023-04-29T17:12:04.298Z,24.05
2023-04-29T17:14:31.710Z,30.15
2023-04-29T17:16:59.058Z,49.10
2023-04-29T17:19:26.307Z,56.15
2023-04-29T17:21:53.714Z,27.15
2023-04-29T17:24:21.028Z,14.38
2023-04-29T17:26:48.365Z,16.10
2023-04-29T17:29:15.606Z,15.40
2023-04-29T17:31:46.158Z,23.10
2023-04-29T17:34:23.986Z,47.30
2023-04-29T17:36:52.045Z,64.22
2023-04-29T17:39:19.430Z,50.70
2023-04-29T17:41:46.854Z,32.60
2023-04-29T17:44:14.276Z,24.67
2023-04-29T17:46:42.741Z,15.55
2023-04-29T17:49:10.400Z,16.63
2023-04-29T17:51:37.808Z,12.20
2023-04-29T17:54:05.713Z,12.10
2023-04-29T17:56:35.063Z,6.93
2023-04-29T17:59:05.221Z,9.30
2023-04-29T18:01:33.386Z,7.47
2023-04-29T18:04:01.050Z,10.32
2023-04-29T18:06:30.512Z,10.68
2023-04-29T18:08:58.253Z,5.03
2023-04-29T18:11:26.093Z,4.13
2023-04-29T18:13:54.419Z,9.00
2023-04-29T18:16:22.605Z,3.28
2023-04-29T18:18:56.612Z,7.00
2023-04-29T18:23:53.826Z,4.15
2023-04-29T18:26:22.004Z,6.35
2023-04-29T18:28:50.008Z,5.72
2023-04-29T18:31:18.399Z,6.22
2023-04-29T18:33:46.457Z,7.97
2023-04-29T18:36:14.451Z,3.67
2023-04-29T18:38:42.295Z,7.75
2023-04-29T18:41:09.760Z,8.18
2023-04-29T18:43:37.314Z,7.75
2023-04-29T18:46:04.805Z,3.65
2023-04-29T18:48:32.565Z,6.32
2023-04-29T18:51:00.562Z,7.93
2023-04-29T18:53:28.002Z,6.70
2023-04-29T18:55:55.550Z,6.55
2023-04-29T18:58:23.090Z,5.63
2023-04-29T19:00:50.468Z,10.10
2023-04-29T19:03:17.932Z,6.60
2023-04-29T19:05:46.018Z,6.60
2023-04-29T19:08:16.376Z,3.83
2023-04-29T19:10:44.973Z,6.28
2023-04-29T19:13:12.824Z,6.65
2023-04-29T19:15:40.350Z,5.60
2023-04-29T19:18:07.891Z,8.88
2023-04-29T19:20:35.510Z,5.80
2023-04-29T19:23:05.880Z,6.35
2023-04-29T19:25:33.549Z,4.55
2023-04-29T19:28:01.560Z,2.42
2023-04-29T19:30:29.102Z,5.25
2023-04-29T19:32:56.577Z,5.25
2023-04-29T19:35:24.260Z,2.83
2023-04-29T19:37:53.403Z,8.05
2023-04-29T19:40:21.255Z,8.27
2023-04-29T19:42:49.026Z,4.90
2023-04-29T19:45:16.746Z,2.15
2023-04-29T19:47:50.091Z,3.92
2023-04-29T19:50:19.623Z,7.82
2023-04-29T19:52:47.882Z,5.55
2023-04-29T19:55:15.361Z,5.35
2023-04-29T19:57:42.700Z,4.80
2023-04-29T20:00:11.843Z,4.50
2023-04-29T20:02:39.618Z,4.15
2023-04-29T20:05:07.320Z,7.65
2023-04-29T20:07:34.789Z,4.85
2023-04-29T20:10:02.525Z,7.00
2023-04-29T20:12:29.889Z,4.28
2023-04-29T20:14:57.904Z,3.70
2023-04-29T20:17:25.710Z,5.18
2023-04-29T20:19:53.246Z,3.08
2023-04-29T20:22:21.027Z,8.23
2023-04-29T20:24:48.495Z,3.80
2023-04-29T20:27:16.020Z,5.82
2023-04-29T20:29:43.836Z,5.65
2023-04-29T20:32:11.618Z,3.15
2023-04-29T20:34:38.980Z,9.48
2023-04-29T20:37:07.285Z,7.82
2023-04-29T20:39:34.747Z,8.68
2023-04-29T20:42:03.328Z,5.00
2023-04-29T20:44:31.056Z,6.07
2023-04-29T20:46:58.595Z,3.58
2023-04-29T20:49:26.509Z,6.80
2023-04-29T20:51:53.978Z,9.85
2023-04-29T20:54:21.396Z,3.90
2023-04-29T20:56:48.777Z,3.85
2023-04-29T20:59:16.279Z,7.70
2023-04-29T21:01:45.566Z,6.22
2023-04-29T21:04:13.168Z,5.75
2023-04-29T21:06:41.065Z,5.53
2023-04-29T21:09:09.273Z,7.70
2023-04-29T21:11:36.764Z,4.70
2023-04-29T21:14:04.236Z,9.18
2023-04-29T21:16:31.608Z,7.22
2023-04-29T21:18:59.030Z,7.65
2023-04-29T21:21:26.442Z,5.10
2023-04-29T21:23:53.781Z,7.28
2023-04-29T21:26:21.491Z,4.60
2023-04-29T21:28:48.987Z,8.30
2023-04-29T21:31:17.269Z,7.53
2023-04-29T21:33:45.777Z,9.10
2023-04-29T21:36:13.836Z,12.05
2023-04-29T21:38:43.058Z,7.97
2023-04-29T21:41:21.010Z,9.00
2023-04-29T21:43:49.661Z,9.40
2023-04-29T21:46:18.017Z,11.63
2023-04-29T21:48:46.341Z,12.23
2023-04-29T21:51:13.838Z,16.58
2023-04-29T21:53:42.798Z,14.40
2023-04-29T21:56:10.174Z,16.95
2023-04-29T21:58:37.510Z,11.77
2023-04-29T22:01:25.120Z,13.98
2023-04-29T22:03:54.161Z,13.38
2023-04-29T22:06:21.789Z,11.20
2023-04-29T22:08:49.357Z,13.10
2023-04-29T22:11:17.154Z,11.10
2023-04-29T22:13:45.587Z,13.43
2023-04-29T22:16:13.167Z,15.52
2023-04-29T22:18:40.672Z,13.90
2023-04-29T22:21:08.257Z,17.55
2023-04-29T22:23:35.908Z,15.52
2023-04-29T22:26:03.864Z,10.68
2023-04-29T22:28:31.349Z,17.83
2023-04-29T22:30:58.763Z,14.13
2023-04-29T22:33:26.402Z,10.75
2023-04-29T22:35:53.839Z,13.40
2023-04-29T22:38:21.476Z,15.35
2023-04-29T22:40:52.615Z,12.77
2023-04-29T22:43:20.190Z,12.88
2023-04-29T22:45:54.624Z,12.30
2023-04-29T22:50:54.403Z,13.02
2023-04-29T22:53:22.580Z,15.02
2023-04-29T22:55:54.602Z,14.10
2023-04-29T22:58:22.771Z,17.55
2023-04-29T23:00:53.066Z,15.30
2023-04-29T23:03:20.818Z,15.15
2023-04-29T23:05:48.739Z,11.73
2023-04-29T23:08:16.507Z,15.82
2023-04-29T23:10:54.147Z,16.27
2023-04-29T23:13:21.695Z,19.17
2023-04-29T23:15:49.375Z,19.40
2023-04-29T23:18:16.848Z,13.57
2023-04-29T23:20:48.021Z,19.23
2023-04-29T23:23:15.603Z,16.95
2023-04-29T23:25:43.554Z,16.20
2023-04-29T23:28:11.095Z,18.48
2023-04-29T23:30:38.537Z,20.70
2023-04-29T23:33:06.079Z,13.60
2023-04-29T23:35:33.641Z,18.88
2023-04-29T23:38:01.055Z,19.52
2023-04-29T23:40:28.473Z,13.38
2023-04-29T23:42:56.076Z,14.07
2023-04-29T23:45:23.789Z,12.50
2023-04-29T23:47:51.256Z,17.77
2023-04-29T23:50:19.024Z,18.08
2023-04-29T23:52:46.585Z,21.02
2023-04-29T23:55:14.109Z,18.02
2023-04-29T23:57:41.853Z,15.90
